sensor_id;sensor_type;location;lat;lon;timestamp;P1;durP1;ratioP1;P2;durP2;ratioP2
25479;SDS011;13393;49.378;8.686;2023-09-12T00:00:11;10.70;;;6.72;;
25479;SDS011;13393;49.378;8.686;2023-09-12T00:02:39;11.27;;;6.90;;
25479;SDS011;13393;49.378;8.686;2023-09-12T00:05:08;10.98;;;7.20;;
25479;SDS011;13393;49.378;8.686;2023-09-12T00:07:34;16.45;;;7.10;;
25479;SDS011;13393;49.378;8.686;2023-09-12T00:10:01;13.13;;;7.20;;
25479;SDS011;13393;49.378;8.686;2023-09-12T00:12:27;18.67;;;7.93;;
25479;SDS011;13393;49.378;8.686;2023-09-12T00:14:54;17.85;;;7.43;;
25479;SDS011;13393;49.378;8.686;2023-09-12T00:17:20;15.98;;;6.88;;
25479;SDS011;13393;49.378;8.686;2023-09-12T00:19:47;13.05;;;7.15;;
25479;SDS011;13393;49.378;8.686;2023-09-12T00:22:15;9.80;;;7.05;;
25479;SDS011;13393;49.378;8.686;2023-09-12T00:24:42;15.05;;;7.75;;
25479;SDS011;13393;49.378;8.686;2023-09-12T00:27:08;13.07;;;7.90;;
25479;SDS011;13393;49.378;8.686;2023-09-12T00:29:35;18.75;;;7.25;;
25479;SDS011;13393;49.378;8.686;2023-09-12T00:32:02;9.45;;;6.28;;
25479;SDS011;13393;49.378;8.686;2023-09-12T00:34:28;11.23;;;7.22;;
25479;SDS011;13393;49.378;8.686;2023-09-12T00:36:57;12.80;;;7.28;;
25479;SDS011;13393;49.378;8.686;2023-09-12T00:39:25;13.65;;;7.40;;
25479;SDS011;13393;49.378;8.686;2023-09-12T00:41:51;19.38;;;7.68;;
25479;SDS011;13393;49.378;8.686;2023-09-12T00:44:18;14.55;;;7.30;;
25479;SDS011;13393;49.378;8.686;2023-09-12T00:46:45;13.25;;;7.47;;
25479;SDS011;13393;49.378;8.686;2023-09-12T00:49:12;18.30;;;7.47;;
25479;SDS011;13393;49.378;8.686;2023-09-12T00:51:42;15.48;;;7.50;;
25479;SDS011;13393;49.378;8.686;2023-09-12T00:54:10;15.75;;;7.50;;
25479;SDS011;13393;49.378;8.686;2023-09-12T00:56:39;13.35;;;7.28;;
25479;SDS011;13393;49.378;8.686;2023-09-12T00:59:06;15.85;;;7.22;;
25479;SDS011;13393;49.378;8.686;2023-09-12T01:01:33;17.85;;;7.80;;
25479;SDS011;13393;49.378;8.686;2023-09-12T01:04:00;15.10;;;7.72;;
25479;SDS011;13393;49.378;8.686;2023-09-12T01:06:27;11.10;;;7.60;;
25479;SDS011;13393;49.378;8.686;2023-09-12T01:08:55;15.52;;;7.28;;
25479;SDS011;13393;49.378;8.686;2023-09-12T01:11:21;13.43;;;7.65;;
25479;SDS011;13393;49.378;8.686;2023-09-12T01:13:49;14.18;;;6.65;;
25479;SDS011;13393;49.378;8.686;2023-09-12T01:16:16;17.35;;;7.20;;
25479;SDS011;13393;49.378;8.686;2023-09-12T01:18:42;11.30;;;6.95;;
25479;SDS011;13393;49.378;8.686;2023-09-12T01:21:19;11.35;;;6.40;;
25479;SDS011;13393;49.378;8.686;2023-09-12T01:23:54;11.77;;;6.85;;
25479;SDS011;13393;49.378;8.686;2023-09-12T01:26:39;11.82;;;6.25;;
25479;SDS011;13393;49.378;8.686;2023-09-12T01:29:09;14.73;;;6.75;;
25479;SDS011;13393;49.378;8.686;2023-09-12T01:31:38;13.98;;;7.30;;
25479;SDS011;13393;49.378;8.686;2023-09-12T01:34:09;15.43;;;7.25;;
25479;SDS011;13393;49.378;8.686;2023-09-12T01:36:35;9.65;;;7.10;;
25479;SDS011;13393;49.378;8.686;2023-09-12T01:39:03;12.43;;;7.07;;
25479;SDS011;13393;49.378;8.686;2023-09-12T01:41:30;12.48;;;7.47;;
25479;SDS011;13393;49.378;8.686;2023-09-12T01:43:58;12.35;;;7.35;;
25479;SDS011;13393;49.378;8.686;2023-09-12T01:46:27;18.45;;;7.07;;
25479;SDS011;13393;49.378;8.686;2023-09-12T01:48:53;12.80;;;7.10;;
25479;SDS011;13393;49.378;8.686;2023-09-12T01:51:20;10.65;;;6.90;;
25479;SDS011;13393;49.378;8.686;2023-09-12T01:53:47;11.48;;;7.15;;
25479;SDS011;13393;49.378;8.686;2023-09-12T01:56:15;16.88;;;8.18;;
25479;SDS011;13393;49.378;8.686;2023-09-12T01:58:43;12.30;;;7.38;;
25479;SDS011;13393;49.378;8.686;2023-09-12T02:01:09;15.90;;;7.20;;
25479;SDS011;13393;49.378;8.686;2023-09-12T02:03:38;14.23;;;7.30;;
25479;SDS011;13393;49.378;8.686;2023-09-12T02:06:05;14.63;;;7.65;;
25479;SDS011;13393;49.378;8.686;2023-09-12T02:08:32;10.77;;;7.13;;
25479;SDS011;13393;49.378;8.686;2023-09-12T02:10:59;11.45;;;6.90;;
25479;SDS011;13393;49.378;8.686;2023-09-12T02:13:27;10.70;;;6.70;;
25479;SDS011;13393;49.378;8.686;2023-09-12T02:15:58;14.25;;;7.32;;
25479;SDS011;13393;49.378;8.686;2023-09-12T02:18:25;13.35;;;7.82;;
25479;SDS011;13393;49.378;8.686;2023-09-12T02:20:55;10.93;;;7.45;;
25479;SDS011;13393;49.378;8.686;2023-09-12T02:23:32;14.77;;;7.55;;
25479;SDS011;13393;49.378;8.686;2023-09-12T02:25:59;12.38;;;6.85;;
25479;SDS011;13393;49.378;8.686;2023-09-12T02:28:26;13.25;;;7.57;;
25479;SDS011;13393;49.378;8.686;2023-09-12T02:30:52;14.00;;;7.00;;
25479;SDS011;13393;49.378;8.686;2023-09-12T02:33:19;13.88;;;7.25;;
25479;SDS011;13393;49.378;8.686;2023-09-12T02:35:46;14.63;;;7.18;;
25479;SDS011;13393;49.378;8.686;2023-09-12T02:38:15;10.52;;;7.15;;
25479;SDS011;13393;49.378;8.686;2023-09-12T02:40:42;12.20;;;7.13;;
25479;SDS011;13393;49.378;8.686;2023-09-12T02:43:08;18.20;;;6.97;;
25479;SDS011;13393;49.378;8.686;2023-09-12T02:45:35;12.63;;;7.32;;
25479;SDS011;13393;49.378;8.686;2023-09-12T02:48:04;12.52;;;6.85;;
25479;SDS011;13393;49.378;8.686;2023-09-12T02:50:31;11.25;;;7.53;;
25479;SDS011;13393;49.378;8.686;2023-09-12T02:52:58;9.70;;;7.35;;
25479;SDS011;13393;49.378;8.686;2023-09-12T02:55:27;13.73;;;7.60;;
25479;SDS011;13393;49.378;8.686;2023-09-12T02:57:54;13.35;;;7.75;;
25479;SDS011;13393;49.378;8.686;2023-09-12T03:00:23;19.42;;;8.65;;
25479;SDS011;13393;49.378;8.686;2023-09-12T03:02:49;11.95;;;7.38;;
25479;SDS011;13393;49.378;8.686;2023-09-12T03:05:18;12.90;;;7.55;;
25479;SDS011;13393;49.378;8.686;2023-09-12T03:07:45;11.93;;;7.78;;
25479;SDS011;13393;49.378;8.686;2023-09-12T03:10:14;13.65;;;6.85;;
25479;SDS011;13393;49.378;8.686;2023-09-12T03:12:42;11.07;;;7.45;;
25479;SDS011;13393;49.378;8.686;2023-09-12T03:15:09;13.55;;;7.28;;
25479;SDS011;13393;49.378;8.686;2023-09-12T03:17:47;12.00;;;7.47;;
25479;SDS011;13393;49.378;8.686;2023-09-12T03:20:14;23.65;;;7.68;;
25479;SDS011;13393;49.378;8.686;2023-09-12T03:22:41;20.33;;;7.68;;
25479;SDS011;13393;49.378;8.686;2023-09-12T03:25:08;15.23;;;7.95;;
25479;SDS011;13393;49.378;8.686;2023-09-12T03:27:36;12.23;;;7.32;;
25479;SDS011;13393;49.378;8.686;2023-09-12T03:30:08;12.32;;;6.95;;
25479;SDS011;13393;49.378;8.686;2023-09-12T03:32:36;12.50;;;7.53;;
25479;SDS011;13393;49.378;8.686;2023-09-12T03:35:03;16.52;;;7.68;;
25479;SDS011;13393;49.378;8.686;2023-09-12T03:37:32;11.52;;;7.95;;
25479;SDS011;13393;49.378;8.686;2023-09-12T03:40:00;11.57;;;7.38;;
25479;SDS011;13393;49.378;8.686;2023-09-12T03:42:28;16.80;;;8.55;;
25479;SDS011;13393;49.378;8.686;2023-09-12T03:44:55;16.95;;;7.03;;
25479;SDS011;13393;49.378;8.686;2023-09-12T03:47:24;14.07;;;7.10;;
25479;SDS011;13393;49.378;8.686;2023-09-12T03:49:50;13.13;;;7.13;;
25479;SDS011;13393;49.378;8.686;2023-09-12T03:52:17;15.43;;;8.23;;
25479;SDS011;13393;49.378;8.686;2023-09-12T03:54:44;10.55;;;7.05;;
25479;SDS011;13393;49.378;8.686;2023-09-12T03:57:11;18.13;;;7.47;;
25479;SDS011;13393;49.378;8.686;2023-09-12T03:59:38;16.42;;;7.68;;
25479;SDS011;13393;49.378;8.686;2023-09-12T04:02:04;14.07;;;6.93;;
25479;SDS011;13393;49.378;8.686;2023-09-12T04:04:32;10.45;;;7.00;;
25479;SDS011;13393;49.378;8.686;2023-09-12T04:06:59;13.43;;;6.88;;
25479;SDS011;13393;49.378;8.686;2023-09-12T04:09:26;14.70;;;6.88;;
25479;SDS011;13393;49.378;8.686;2023-09-12T04:11:53;16.27;;;7.18;;
25479;SDS011;13393;49.378;8.686;2023-09-12T04:14:20;11.63;;;6.90;;
25479;SDS011;13393;49.378;8.686;2023-09-12T04:16:47;17.48;;;7.43;;
25479;SDS011;13393;49.378;8.686;2023-09-12T04:19:13;13.05;;;7.55;;
25479;SDS011;13393;49.378;8.686;2023-09-12T04:21:41;12.73;;;6.95;;
25479;SDS011;13393;49.378;8.686;2023-09-12T04:24:08;20.27;;;8.50;;
25479;SDS011;13393;49.378;8.686;2023-09-12T04:26:34;14.75;;;7.60;;
25479;SDS011;13393;49.378;8.686;2023-09-12T04:29:01;12.30;;;7.53;;
25479;SDS011;13393;49.378;8.686;2023-09-12T04:31:35;17.88;;;8.25;;
25479;SDS011;13393;49.378;8.686;2023-09-12T04:34:01;18.08;;;7.68;;
25479;SDS011;13393;49.378;8.686;2023-09-12T04:36:28;14.23;;;7.75;;
25479;SDS011;13393;49.378;8.686;2023-09-12T04:38:56;15.77;;;7.93;;
25479;SDS011;13393;49.378;8.686;2023-09-12T04:41:22;13.23;;;8.75;;
25479;SDS011;13393;49.378;8.686;2023-09-12T04:43:49;11.38;;;7.22;;
25479;SDS011;13393;49.378;8.686;2023-09-12T04:46:16;14.35;;;6.70;;
25479;SDS011;13393;49.378;8.686;2023-09-12T04:48:45;15.40;;;6.55;;
25479;SDS011;13393;49.378;8.686;2023-09-12T04:51:12;11.13;;;6.47;;
25479;SDS011;13393;49.378;8.686;2023-09-12T04:53:39;16.30;;;6.50;;
25479;SDS011;13393;49.378;8.686;2023-09-12T04:56:07;10.93;;;5.82;;
25479;SDS011;13393;49.378;8.686;2023-09-12T04:58:35;14.73;;;6.38;;
25479;SDS011;13393;49.378;8.686;2023-09-12T05:01:01;17.15;;;7.70;;
25479;SDS011;13393;49.378;8.686;2023-09-12T05:03:28;13.15;;;6.72;;
25479;SDS011;13393;49.378;8.686;2023-09-12T05:05:56;16.30;;;7.05;;
25479;SDS011;13393;49.378;8.686;2023-09-12T05:08:24;14.05;;;7.25;;
25479;SDS011;13393;49.378;8.686;2023-09-12T05:10:51;11.32;;;7.47;;
25479;SDS011;13393;49.378;8.686;2023-09-12T05:13:19;14.30;;;7.28;;
25479;SDS011;13393;49.378;8.686;2023-09-12T05:15:46;17.02;;;7.72;;
25479;SDS011;13393;49.378;8.686;2023-09-12T05:18:12;14.57;;;7.72;;
25479;SDS011;13393;49.378;8.686;2023-09-12T05:20:39;12.98;;;7.70;;
25479;SDS011;13393;49.378;8.686;2023-09-12T05:23:06;16.02;;;8.15;;
25479;SDS011;13393;49.378;8.686;2023-09-12T05:25:32;16.63;;;8.20;;
25479;SDS011;13393;49.378;8.686;2023-09-12T05:27:59;19.08;;;8.52;;
25479;SDS011;13393;49.378;8.686;2023-09-12T05:30:27;19.00;;;8.70;;
25479;SDS011;13393;49.378;8.686;2023-09-12T05:32:54;20.35;;;8.38;;
25479;SDS011;13393;49.378;8.686;2023-09-12T05:35:20;16.27;;;9.23;;
25479;SDS011;13393;49.378;8.686;2023-09-12T05:37:46;18.10;;;8.73;;
25479;SDS011;13393;49.378;8.686;2023-09-12T05:40:13;16.13;;;8.90;;
25479;SDS011;13393;49.378;8.686;2023-09-12T05:42:41;16.33;;;8.45;;
25479;SDS011;13393;49.378;8.686;2023-09-12T05:45:08;15.88;;;8.35;;
25479;SDS011;13393;49.378;8.686;2023-09-12T05:47:36;16.75;;;8.55;;
25479;SDS011;13393;49.378;8.686;2023-09-12T05:50:02;13.35;;;8.52;;
25479;SDS011;13393;49.378;8.686;2023-09-12T05:52:30;20.70;;;8.75;;
25479;SDS011;13393;49.378;8.686;2023-09-12T05:54:57;15.02;;;8.15;;
25479;SDS011;13393;49.378;8.686;2023-09-12T05:57:23;12.63;;;8.30;;
25479;SDS011;13393;49.378;8.686;2023-09-12T05:59:50;14.35;;;8.77;;
25479;SDS011;13393;49.378;8.686;2023-09-12T06:02:16;13.52;;;9.13;;
25479;SDS011;13393;49.378;8.686;2023-09-12T06:04:44;18.30;;;9.73;;
25479;SDS011;13393;49.378;8.686;2023-09-12T06:07:11;14.73;;;9.02;;
25479;SDS011;13393;49.378;8.686;2023-09-12T06:09:37;14.55;;;8.88;;
25479;SDS011;13393;49.378;8.686;2023-09-12T06:12:04;19.75;;;9.50;;
25479;SDS011;13393;49.378;8.686;2023-09-12T06:14:31;19.58;;;9.52;;
25479;SDS011;13393;49.378;8.686;2023-09-12T06:16:58;16.70;;;8.80;;
25479;SDS011;13393;49.378;8.686;2023-09-12T06:19:24;12.50;;;9.00;;
25479;SDS011;13393;49.378;8.686;2023-09-12T06:21:52;16.20;;;10.05;;
25479;SDS011;13393;49.378;8.686;2023-09-12T06:24:20;21.92;;;9.38;;
25479;SDS011;13393;49.378;8.686;2023-09-12T06:26:47;13.50;;;8.95;;
25479;SDS011;13393;49.378;8.686;2023-09-12T06:29:14;19.65;;;10.45;;
25479;SDS011;13393;49.378;8.686;2023-09-12T06:31:40;18.45;;;8.98;;
25479;SDS011;13393;49.378;8.686;2023-09-12T06:34:07;15.63;;;8.30;;
25479;SDS011;13393;49.378;8.686;2023-09-12T06:36:34;18.42;;;9.10;;
25479;SDS011;13393;49.378;8.686;2023-09-12T06:39:02;15.63;;;8.40;;
25479;SDS011;13393;49.378;8.686;2023-09-12T06:41:30;20.08;;;8.60;;
25479;SDS011;13393;49.378;8.686;2023-09-12T06:43:56;12.60;;;8.88;;
25479;SDS011;13393;49.378;8.686;2023-09-12T06:46:23;17.85;;;9.43;;
25479;SDS011;13393;49.378;8.686;2023-09-12T06:48:50;21.58;;;9.70;;
25479;SDS011;13393;49.378;8.686;2023-09-12T06:51:16;21.00;;;9.75;;
25479;SDS011;13393;49.378;8.686;2023-09-12T06:53:43;17.25;;;9.68;;
25479;SDS011;13393;49.378;8.686;2023-09-12T06:56:11;16.55;;;9.00;;
25479;SDS011;13393;49.378;8.686;2023-09-12T06:58:38;21.83;;;10.77;;
25479;SDS011;13393;49.378;8.686;2023-09-12T07:01:05;21.40;;;11.20;;
25479;SDS011;13393;49.378;8.686;2023-09-12T07:03:31;21.25;;;11.02;;
25479;SDS011;13393;49.378;8.686;2023-09-12T07:06:03;22.90;;;10.68;;
25479;SDS011;13393;49.378;8.686;2023-09-12T07:08:30;18.10;;;10.35;;
25479;SDS011;13393;49.378;8.686;2023-09-12T07:10:57;21.40;;;9.27;;
25479;SDS011;13393;49.378;8.686;2023-09-12T07:13:32;22.92;;;10.48;;
25479;SDS011;13393;49.378;8.686;2023-09-12T07:15:59;19.05;;;9.10;;
25479;SDS011;13393;49.378;8.686;2023-09-12T07:18:28;21.45;;;9.23;;
25479;SDS011;13393;49.378;8.686;2023-09-12T07:20:58;20.10;;;9.90;;
25479;SDS011;13393;49.378;8.686;2023-09-12T07:23:25;22.88;;;10.07;;
25479;SDS011;13393;49.378;8.686;2023-09-12T07:25:51;19.63;;;9.88;;
25479;SDS011;13393;49.378;8.686;2023-09-12T07:28:18;18.38;;;8.25;;
25479;SDS011;13393;49.378;8.686;2023-09-12T07:30:47;16.00;;;9.45;;
25479;SDS011;13393;49.378;8.686;2023-09-12T07:33:13;16.85;;;8.43;;
25479;SDS011;13393;49.378;8.686;2023-09-12T07:35:40;19.20;;;8.55;;
25479;SDS011;13393;49.378;8.686;2023-09-12T07:38:06;16.27;;;8.25;;
25479;SDS011;13393;49.378;8.686;2023-09-12T07:40:33;16.90;;;7.93;;
25479;SDS011;13393;49.378;8.686;2023-09-12T07:42:59;11.90;;;7.18;;
25479;SDS011;13393;49.378;8.686;2023-09-12T07:45:27;19.95;;;7.95;;
25479;SDS011;13393;49.378;8.686;2023-09-12T07:47:56;16.65;;;8.10;;
25479;SDS011;13393;49.378;8.686;2023-09-12T07:50:23;19.33;;;8.13;;
25479;SDS011;13393;49.378;8.686;2023-09-12T07:52:49;16.20;;;8.07;;
25479;SDS011;13393;49.378;8.686;2023-09-12T07:55:16;13.77;;;7.88;;
25479;SDS011;13393;49.378;8.686;2023-09-12T07:57:43;12.60;;;7.80;;
25479;SDS011;13393;49.378;8.686;2023-09-12T08:00:10;13.27;;;7.35;;
25479;SDS011;13393;49.378;8.686;2023-09-12T08:02:37;14.90;;;8.18;;
25479;SDS011;13393;49.378;8.686;2023-09-12T08:05:06;11.35;;;7.50;;
25479;SDS011;13393;49.378;8.686;2023-09-12T08:07:33;15.65;;;8.60;;
25479;SDS011;13393;49.378;8.686;2023-09-12T08:10:00;10.80;;;7.75;;
25479;SDS011;13393;49.378;8.686;2023-09-12T08:12:27;13.20;;;8.02;;
25479;SDS011;13393;49.378;8.686;2023-09-12T08:14:54;10.90;;;8.20;;
25479;SDS011;13393;49.378;8.686;2023-09-12T08:17:21;16.38;;;8.52;;
25479;SDS011;13393;49.378;8.686;2023-09-12T08:19:48;11.95;;;8.27;;
25479;SDS011;13393;49.378;8.686;2023-09-12T08:22:16;10.43;;;7.53;;
25479;SDS011;13393;49.378;8.686;2023-09-12T08:24:44;14.75;;;8.02;;
25479;SDS011;13393;49.378;8.686;2023-09-12T08:27:10;10.63;;;7.50;;
25479;SDS011;13393;49.378;8.686;2023-09-12T08:29:37;11.70;;;7.70;;
25479;SDS011;13393;49.378;8.686;2023-09-12T08:32:04;12.23;;;7.63;;
25479;SDS011;13393;49.378;8.686;2023-09-12T08:34:30;9.98;;;7.55;;
25479;SDS011;13393;49.378;8.686;2023-09-12T08:36:57;13.25;;;7.72;;
25479;SDS011;13393;49.378;8.686;2023-09-12T08:39:27;12.15;;;7.63;;
25479;SDS011;13393;49.378;8.686;2023-09-12T08:41:53;12.85;;;7.60;;
25479;SDS011;13393;49.378;8.686;2023-09-12T08:44:20;11.10;;;7.18;;
25479;SDS011;13393;49.378;8.686;2023-09-12T08:46:47;11.70;;;7.47;;
25479;SDS011;13393;49.378;8.686;2023-09-12T08:49:14;14.20;;;7.03;;
25479;SDS011;13393;49.378;8.686;2023-09-12T08:51:41;8.43;;;7.03;;
25479;SDS011;13393;49.378;8.686;2023-09-12T08:54:07;16.33;;;7.90;;
25479;SDS011;13393;49.378;8.686;2023-09-12T08:56:36;12.20;;;7.78;;
25479;SDS011;13393;49.378;8.686;2023-09-12T08:59:05;17.10;;;7.55;;
25479;SDS011;13393;49.378;8.686;2023-09-12T09:01:33;13.07;;;7.90;;
25479;SDS011;13393;49.378;8.686;2023-09-12T09:04:01;10.55;;;7.28;;
25479;SDS011;13393;49.378;8.686;2023-09-12T09:06:28;14.63;;;8.02;;
25479;SDS011;13393;49.378;8.686;2023-09-12T09:08:56;14.10;;;7.80;;
25479;SDS011;13393;49.378;8.686;2023-09-12T09:11:22;13.80;;;7.45;;
25479;SDS011;13393;49.378;8.686;2023-09-12T09:13:54;11.60;;;7.00;;
25479;SDS011;13393;49.378;8.686;2023-09-12T09:16:21;13.38;;;7.50;;
25479;SDS011;13393;49.378;8.686;2023-09-12T09:18:49;16.10;;;7.43;;
25479;SDS011;13393;49.378;8.686;2023-09-12T09:21:16;13.10;;;7.68;;
25479;SDS011;13393;49.378;8.686;2023-09-12T09:23:44;10.88;;;7.13;;
25479;SDS011;13393;49.378;8.686;2023-09-12T09:26:10;12.90;;;7.10;;
25479;SDS011;13393;49.378;8.686;2023-09-12T09:28:37;12.82;;;7.25;;
25479;SDS011;13393;49.378;8.686;2023-09-12T09:31:05;12.95;;;7.20;;
25479;SDS011;13393;49.378;8.686;2023-09-12T09:33:37;7.97;;;7.13;;
25479;SDS011;13393;49.378;8.686;2023-09-12T09:36:04;11.65;;;6.70;;
25479;SDS011;13393;49.378;8.686;2023-09-12T09:38:31;13.00;;;7.05;;
25479;SDS011;13393;49.378;8.686;2023-09-12T09:40:57;15.38;;;7.15;;
25479;SDS011;13393;49.378;8.686;2023-09-12T09:43:24;10.95;;;8.27;;
25479;SDS011;13393;49.378;8.686;2023-09-12T09:45:51;15.48;;;10.38;;
25479;SDS011;13393;49.378;8.686;2023-09-12T09:48:19;11.93;;;7.95;;
25479;SDS011;13393;49.378;8.686;2023-09-12T09:50:46;17.23;;;13.20;;
25479;SDS011;13393;49.378;8.686;2023-09-12T09:53:13;12.13;;;7.05;;
25479;SDS011;13393;49.378;8.686;2023-09-12T09:55:39;15.48;;;9.07;;
25479;SDS011;13393;49.378;8.686;2023-09-12T09:58:06;11.85;;;7.25;;
25479;SDS011;13393;49.378;8.686;2023-09-12T10:00:33;15.65;;;8.90;;
25479;SDS011;13393;49.378;8.686;2023-09-12T10:03:03;14.95;;;7.97;;
25479;SDS011;13393;49.378;8.686;2023-09-12T10:05:32;16.48;;;8.05;;
25479;SDS011;13393;49.378;8.686;2023-09-12T10:07:59;11.00;;;7.38;;
25479;SDS011;13393;49.378;8.686;2023-09-12T10:10:27;12.45;;;9.63;;
25479;SDS011;13393;49.378;8.686;2023-09-12T10:12:55;9.52;;;7.00;;
25479;SDS011;13393;49.378;8.686;2023-09-12T10:15:22;8.80;;;7.07;;
25479;SDS011;13393;49.378;8.686;2023-09-12T10:17:51;10.35;;;7.80;;
25479;SDS011;13393;49.378;8.686;2023-09-12T10:20:19;12.50;;;7.07;;
25479;SDS011;13393;49.378;8.686;2023-09-12T10:22:49;11.52;;;6.50;;
25479;SDS011;13393;49.378;8.686;2023-09-12T10:25:18;11.90;;;6.90;;
25479;SDS011;13393;49.378;8.686;2023-09-12T10:27:45;10.73;;;8.75;;
25479;SDS011;13393;49.378;8.686;2023-09-12T10:30:12;11.15;;;9.90;;
25479;SDS011;13393;49.378;8.686;2023-09-12T10:32:39;12.25;;;7.07;;
25479;SDS011;13393;49.378;8.686;2023-09-12T10:35:06;9.13;;;7.80;;
25479;SDS011;13393;49.378;8.686;2023-09-12T10:37:34;13.43;;;7.03;;
25479;SDS011;13393;49.378;8.686;2023-09-12T10:40:05;11.88;;;7.03;;
25479;SDS011;13393;49.378;8.686;2023-09-12T10:42:34;9.43;;;8.05;;
25479;SDS011;13393;49.378;8.686;2023-09-12T10:45:01;10.15;;;7.10;;
25479;SDS011;13393;49.378;8.686;2023-09-12T10:47:28;8.55;;;6.80;;
25479;SDS011;13393;49.378;8.686;2023-09-12T10:49:55;9.48;;;7.20;;
25479;SDS011;13393;49.378;8.686;2023-09-12T10:52:25;12.35;;;7.03;;
25479;SDS011;13393;49.378;8.686;2023-09-12T10:54:52;12.25;;;6.85;;
25479;SDS011;13393;49.378;8.686;2023-09-12T10:57:20;14.45;;;8.68;;
25479;SDS011;13393;49.378;8.686;2023-09-12T11:02:33;10.02;;;7.35;;
25479;SDS011;13393;49.378;8.686;2023-09-12T11:05:00;12.73;;;7.55;;
25479;SDS011;13393;49.378;8.686;2023-09-12T11:07:44;9.80;;;7.30;;
25479;SDS011;13393;49.378;8.686;2023-09-12T11:10:20;10.95;;;7.30;;
25479;SDS011;13393;49.378;8.686;2023-09-12T11:12:49;9.93;;;7.50;;
25479;SDS011;13393;49.378;8.686;2023-09-12T11:15:16;8.93;;;7.60;;
25479;SDS011;13393;49.378;8.686;2023-09-12T11:17:42;12.45;;;7.20;;
25479;SDS011;13393;49.378;8.686;2023-09-12T11:20:09;10.57;;;7.22;;
25479;SDS011;13393;49.378;8.686;2023-09-12T11:22:36;10.32;;;6.68;;
25479;SDS011;13393;49.378;8.686;2023-09-12T11:25:05;15.02;;;7.45;;
25479;SDS011;13393;49.378;8.686;2023-09-12T11:27:32;11.25;;;6.97;;
25479;SDS011;13393;49.378;8.686;2023-09-12T11:30:05;11.70;;;7.00;;
25479;SDS011;13393;49.378;8.686;2023-09-12T11:32:32;10.52;;;6.55;;
25479;SDS011;13393;49.378;8.686;2023-09-12T11:34:58;9.48;;;6.70;;
25479;SDS011;13393;49.378;8.686;2023-09-12T11:37:25;10.50;;;6.93;;
25479;SDS011;13393;49.378;8.686;2023-09-12T11:39:53;8.02;;;6.00;;
25479;SDS011;13393;49.378;8.686;2023-09-12T11:42:22;10.63;;;6.55;;
25479;SDS011;13393;49.378;8.686;2023-09-12T11:44:50;9.75;;;6.05;;
25479;SDS011;13393;49.378;8.686;2023-09-12T11:47:19;7.32;;;6.05;;
25479;SDS011;13393;49.378;8.686;2023-09-12T11:49:45;10.98;;;6.50;;
25479;SDS011;13393;49.378;8.686;2023-09-12T11:52:12;7.53;;;6.10;;
25479;SDS011;13393;49.378;8.686;2023-09-12T11:54:39;10.63;;;6.53;;
25479;SDS011;13393;49.378;8.686;2023-09-12T11:57:06;7.97;;;6.47;;
25479;SDS011;13393;49.378;8.686;2023-09-12T11:59:36;10.45;;;6.10;;
25479;SDS011;13393;49.378;8.686;2023-09-12T12:02:05;6.85;;;5.45;;
25479;SDS011;13393;49.378;8.686;2023-09-12T12:04:33;7.03;;;6.00;;
25479;SDS011;13393;49.378;8.686;2023-09-12T12:07:00;8.07;;;5.70;;
25479;SDS011;13393;49.378;8.686;2023-09-12T12:09:27;7.55;;;5.50;;
25479;SDS011;13393;49.378;8.686;2023-09-12T12:11:54;9.70;;;6.03;;
25479;SDS011;13393;49.378;8.686;2023-09-12T12:14:20;8.77;;;5.63;;
25479;SDS011;13393;49.378;8.686;2023-09-12T12:16:47;9.45;;;5.75;;
25479;SDS011;13393;49.378;8.686;2023-09-12T12:19:13;6.78;;;5.63;;
25479;SDS011;13393;49.378;8.686;2023-09-12T12:21:41;8.27;;;5.95;;
25479;SDS011;13393;49.378;8.686;2023-09-12T12:24:09;8.07;;;5.57;;
25479;SDS011;13393;49.378;8.686;2023-09-12T12:26:37;5.97;;;5.38;;
25479;SDS011;13393;49.378;8.686;2023-09-12T12:29:03;8.60;;;5.68;;
25479;SDS011;13393;49.378;8.686;2023-09-12T12:31:30;8.43;;;5.78;;
25479;SDS011;13393;49.378;8.686;2023-09-12T12:33:57;10.02;;;5.28;;
25479;SDS011;13393;49.378;8.686;2023-09-12T12:36:24;6.80;;;5.90;;
25479;SDS011;13393;49.378;8.686;2023-09-12T12:38:55;10.05;;;5.50;;
25479;SDS011;13393;49.378;8.686;2023-09-12T12:41:22;8.57;;;6.05;;
25479;SDS011;13393;49.378;8.686;2023-09-12T12:43:49;10.40;;;5.75;;
25479;SDS011;13393;49.378;8.686;2023-09-12T12:46:16;7.50;;;5.45;;
25479;SDS011;13393;49.378;8.686;2023-09-12T12:48:44;6.13;;;5.53;;
25479;SDS011;13393;49.378;8.686;2023-09-12T12:51:14;8.95;;;5.22;;
25479;SDS011;13393;49.378;8.686;2023-09-12T12:53:43;8.57;;;5.07;;
25479;SDS011;13393;49.378;8.686;2023-09-12T12:56:13;6.22;;;5.47;;
25479;SDS011;13393;49.378;8.686;2023-09-12T12:58:44;7.45;;;5.10;;
25479;SDS011;13393;49.378;8.686;2023-09-12T13:01:11;6.25;;;5.18;;
25479;SDS011;13393;49.378;8.686;2023-09-12T13:03:37;6.85;;;5.18;;
25479;SDS011;13393;49.378;8.686;2023-09-12T13:06:04;12.63;;;5.20;;
25479;SDS011;13393;49.378;8.686;2023-09-12T13:08:38;7.90;;;5.00;;
25479;SDS011;13393;49.378;8.686;2023-09-12T13:11:04;7.15;;;4.80;;
25479;SDS011;13393;49.378;8.686;2023-09-12T13:13:32;7.65;;;4.72;;
25479;SDS011;13393;49.378;8.686;2023-09-12T13:15:59;8.30;;;5.20;;
25479;SDS011;13393;49.378;8.686;2023-09-12T13:18:25;7.13;;;4.65;;
25479;SDS011;13393;49.378;8.686;2023-09-12T13:20:52;5.35;;;4.68;;
25479;SDS011;13393;49.378;8.686;2023-09-12T13:23:18;9.23;;;4.63;;
25479;SDS011;13393;49.378;8.686;2023-09-12T13:25:45;9.07;;;4.80;;
25479;SDS011;13393;49.378;8.686;2023-09-12T13:28:11;7.80;;;5.03;;
25479;SDS011;13393;49.378;8.686;2023-09-12T13:30:39;8.80;;;4.72;;
25479;SDS011;13393;49.378;8.686;2023-09-12T13:33:06;9.95;;;5.80;;
25479;SDS011;13393;49.378;8.686;2023-09-12T13:35:32;7.80;;;5.10;;
25479;SDS011;13393;49.378;8.686;2023-09-12T13:37:58;6.55;;;4.63;;
25479;SDS011;13393;49.378;8.686;2023-09-12T13:40:25;10.45;;;5.13;;
25479;SDS011;13393;49.378;8.686;2023-09-12T13:42:52;6.75;;;5.55;;
25479;SDS011;13393;49.378;8.686;2023-09-12T13:45:19;11.70;;;5.40;;
25479;SDS011;13393;49.378;8.686;2023-09-12T13:47:47;8.43;;;4.47;;
25479;SDS011;13393;49.378;8.686;2023-09-12T13:50:14;6.90;;;4.57;;
25479;SDS011;13393;49.378;8.686;2023-09-12T13:52:40;7.70;;;4.60;;
25479;SDS011;13393;49.378;8.686;2023-09-12T13:55:08;5.82;;;4.07;;
25479;SDS011;13393;49.378;8.686;2023-09-12T13:57:38;11.02;;;4.38;;
25479;SDS011;13393;49.378;8.686;2023-09-12T14:00:05;5.40;;;4.53;;
25479;SDS011;13393;49.378;8.686;2023-09-12T14:02:32;17.95;;;5.72;;
25479;SDS011;13393;49.378;8.686;2023-09-12T14:05:00;10.63;;;4.90;;
25479;SDS011;13393;49.378;8.686;2023-09-12T14:07:26;10.85;;;4.60;;
25479;SDS011;13393;49.378;8.686;2023-09-12T14:09:53;39.20;;;5.57;;
25479;SDS011;13393;49.378;8.686;2023-09-12T14:12:21;5.97;;;4.00;;
25479;SDS011;13393;49.378;8.686;2023-09-12T14:14:48;5.90;;;4.25;;
25479;SDS011;13393;49.378;8.686;2023-09-12T14:17:14;6.85;;;4.90;;
25479;SDS011;13393;49.378;8.686;2023-09-12T14:19:41;4.97;;;4.43;;
25479;SDS011;13393;49.378;8.686;2023-09-12T14:22:09;7.18;;;4.15;;
25479;SDS011;13393;49.378;8.686;2023-09-12T14:24:36;4.68;;;4.13;;
25479;SDS011;13393;49.378;8.686;2023-09-12T14:27:04;8.38;;;4.70;;
25479;SDS011;13393;49.378;8.686;2023-09-12T14:29:30;6.53;;;4.28;;
25479;SDS011;13393;49.378;8.686;2023-09-12T14:31:56;7.15;;;4.35;;
25479;SDS011;13393;49.378;8.686;2023-09-12T14:34:23;7.07;;;4.20;;
25479;SDS011;13393;49.378;8.686;2023-09-12T14:36:52;6.82;;;4.43;;
25479;SDS011;13393;49.378;8.686;2023-09-12T14:39:20;6.32;;;3.75;;